sensor_id;sensor_type;location;lat;lon;timestamp;P1;durP1;ratioP1;P2;durP2;ratioP2
47796;SDS011;33558;50.922;14.068;2022-09-14T00:00:11;8.13;;;4.70;;
47796;SDS011;33558;50.922;14.068;2022-09-14T00:02:41;7.75;;;5.22;;
47796;SDS011;33558;50.922;14.068;2022-09-14T00:05:10;7.60;;;4.50;;
47796;SDS011;33558;50.922;14.068;2022-09-14T00:07:37;6.88;;;4.97;;
47796;SDS011;33558;50.922;14.068;2022-09-14T00:10:04;8.50;;;5.18;;
47796;SDS011;33558;50.922;14.068;2022-09-14T00:12:31;5.47;;;4.90;;
47796;SDS011;33558;50.922;14.068;2022-09-14T00:14:58;5.97;;;4.80;;
47796;SDS011;33558;50.922;14.068;2022-09-14T00:17:25;11.60;;;5.28;;
47796;SDS011;33558;50.922;14.068;2022-09-14T00:19:53;7.20;;;4.90;;
47796;SDS011;33558;50.922;14.068;2022-09-14T00:22:19;12.73;;;5.00;;
47796;SDS011;33558;50.922;14.068;2022-09-14T00:24:46;10.88;;;5.35;;
47796;SDS011;33558;50.922;14.068;2022-09-14T00:27:12;6.47;;;5.03;;
47796;SDS011;33558;50.922;14.068;2022-09-14T00:29:39;6.55;;;4.80;;
47796;SDS011;33558;50.922;14.068;2022-09-14T00:32:06;8.10;;;5.32;;
47796;SDS011;33558;50.922;14.068;2022-09-14T00:34:32;7.45;;;5.10;;
47796;SDS011;33558;50.922;14.068;2022-09-14T00:37:01;10.18;;;5.53;;
47796;SDS011;33558;50.922;14.068;2022-09-14T00:39:28;8.45;;;5.45;;
47796;SDS011;33558;50.922;14.068;2022-09-14T00:41:54;9.60;;;5.75;;
47796;SDS011;33558;50.922;14.068;2022-09-14T00:47:32;7.85;;;5.70;;
47796;SDS011;33558;50.922;14.068;2022-09-14T00:50:00;7.90;;;5.53;;
47796;SDS011;33558;50.922;14.068;2022-09-14T00:52:30;6.72;;;5.30;;
47796;SDS011;33558;50.922;14.068;2022-09-14T00:54:58;6.45;;;5.75;;
47796;SDS011;33558;50.922;14.068;2022-09-14T00:57:26;7.00;;;5.65;;
47796;SDS011;33558;50.922;14.068;2022-09-14T00:59:55;6.72;;;4.85;;
47796;SDS011;33558;50.922;14.068;2022-09-14T01:02:22;6.18;;;5.22;;
47796;SDS011;33558;50.922;14.068;2022-09-14T01:04:51;6.72;;;5.35;;
47796;SDS011;33558;50.922;14.068;2022-09-14T01:07:21;6.28;;;5.40;;
47796;SDS011;33558;50.922;14.068;2022-09-14T01:09:59;7.75;;;4.95;;
47796;SDS011;33558;50.922;14.068;2022-09-14T01:12:31;6.85;;;4.55;;
47796;SDS011;33558;50.922;14.068;2022-09-14T01:15:02;7.82;;;4.95;;
47796;SDS011;33558;50.922;14.068;2022-09-14T01:17:33;7.40;;;5.22;;
47796;SDS011;33558;50.922;14.068;2022-09-14T01:20:14;7.45;;;5.07;;
47796;SDS011;33558;50.922;14.068;2022-09-14T01:22:48;8.27;;;5.10;;
47796;SDS011;33558;50.922;14.068;2022-09-14T01:25:24;7.15;;;4.47;;
47796;SDS011;33558;50.922;14.068;2022-09-14T01:27:58;6.88;;;5.03;;
47796;SDS011;33558;50.922;14.068;2022-09-14T01:30:26;7.03;;;5.20;;
47796;SDS011;33558;50.922;14.068;2022-09-14T01:32:56;10.50;;;5.07;;
47796;SDS011;33558;50.922;14.068;2022-09-14T01:35:25;7.15;;;5.32;;
47796;SDS011;33558;50.922;14.068;2022-09-14T01:37:54;9.07;;;6.25;;
47796;SDS011;33558;50.922;14.068;2022-09-14T01:40:24;7.75;;;5.28;;
47796;SDS011;33558;50.922;14.068;2022-09-14T01:42:54;9.45;;;5.88;;
47796;SDS011;33558;50.922;14.068;2022-09-14T01:45:24;6.03;;;5.40;;
47796;SDS011;33558;50.922;14.068;2022-09-14T01:47:53;8.45;;;5.78;;
47796;SDS011;33558;50.922;14.068;2022-09-14T01:50:21;10.50;;;5.68;;
47796;SDS011;33558;50.922;14.068;2022-09-14T01:52:51;5.82;;;5.20;;
47796;SDS011;33558;50.922;14.068;2022-09-14T01:55:21;9.40;;;5.13;;
47796;SDS011;33558;50.922;14.068;2022-09-14T01:57:53;8.25;;;4.93;;
47796;SDS011;33558;50.922;14.068;2022-09-14T02:00:24;9.07;;;5.72;;
47796;SDS011;33558;50.922;14.068;2022-09-14T02:02:52;6.85;;;6.07;;
47796;SDS011;33558;50.922;14.068;2022-09-14T02:05:22;7.43;;;5.95;;
47796;SDS011;33558;50.922;14.068;2022-09-14T02:07:52;11.07;;;5.88;;
47796;SDS011;33558;50.922;14.068;2022-09-14T02:10:19;10.98;;;6.20;;
47796;SDS011;33558;50.922;14.068;2022-09-14T02:12:47;8.77;;;5.50;;
47796;SDS011;33558;50.922;14.068;2022-09-14T02:15:13;6.43;;;5.72;;
47796;SDS011;33558;50.922;14.068;2022-09-14T02:17:41;7.93;;;5.60;;
47796;SDS011;33558;50.922;14.068;2022-09-14T02:20:10;10.70;;;5.72;;
47796;SDS011;33558;50.922;14.068;2022-09-14T02:22:39;7.82;;;5.22;;
47796;SDS011;33558;50.922;14.068;2022-09-14T02:25:06;6.05;;;5.38;;
47796;SDS011;33558;50.922;14.068;2022-09-14T02:27:33;7.35;;;6.05;;
47796;SDS011;33558;50.922;14.068;2022-09-14T02:30:00;7.03;;;5.00;;
47796;SDS011;33558;50.922;14.068;2022-09-14T02:32:29;9.43;;;5.97;;
47796;SDS011;33558;50.922;14.068;2022-09-14T02:35:02;5.85;;;5.00;;
47796;SDS011;33558;50.922;14.068;2022-09-14T02:37:36;8.05;;;5.72;;
47796;SDS011;33558;50.922;14.068;2022-09-14T02:40:08;9.13;;;5.13;;
47796;SDS011;33558;50.922;14.068;2022-09-14T02:42:40;6.90;;;5.45;;
47796;SDS011;33558;50.922;14.068;2022-09-14T02:45:10;15.73;;;5.55;;
47796;SDS011;33558;50.922;14.068;2022-09-14T02:47:46;9.65;;;5.35;;
47796;SDS011;33558;50.922;14.068;2022-09-14T02:50:21;6.28;;;5.43;;
47796;SDS011;33558;50.922;14.068;2022-09-14T02:52:50;8.27;;;5.80;;
47796;SDS011;33558;50.922;14.068;2022-09-14T02:55:21;6.97;;;5.47;;
47796;SDS011;33558;50.922;14.068;2022-09-14T02:57:59;7.13;;;5.10;;
47796;SDS011;33558;50.922;14.068;2022-09-14T03:00:27;5.90;;;5.30;;
47796;SDS011;33558;50.922;14.068;2022-09-14T03:02:55;10.98;;;5.40;;
47796;SDS011;33558;50.922;14.068;2022-09-14T03:05:23;6.50;;;5.82;;
47796;SDS011;33558;50.922;14.068;2022-09-14T03:07:50;12.43;;;6.25;;
47796;SDS011;33558;50.922;14.068;2022-09-14T03:10:17;8.23;;;5.55;;
47796;SDS011;33558;50.922;14.068;2022-09-14T03:12:43;9.25;;;5.88;;
47796;SDS011;33558;50.922;14.068;2022-09-14T03:15:10;7.18;;;5.78;;
47796;SDS011;33558;50.922;14.068;2022-09-14T03:17:37;8.63;;;5.75;;
47796;SDS011;33558;50.922;14.068;2022-09-14T03:20:04;8.27;;;5.88;;
47796;SDS011;33558;50.922;14.068;2022-09-14T03:22:32;10.77;;;6.03;;
47796;SDS011;33558;50.922;14.068;2022-09-14T03:24:59;10.40;;;6.18;;
47796;SDS011;33558;50.922;14.068;2022-09-14T03:27:25;6.85;;;5.47;;
47796;SDS011;33558;50.922;14.068;2022-09-14T03:29:52;7.45;;;5.30;;
47796;SDS011;33558;50.922;14.068;2022-09-14T03:32:18;9.77;;;5.55;;
47796;SDS011;33558;50.922;14.068;2022-09-14T03:34:45;7.65;;;5.30;;
47796;SDS011;33558;50.922;14.068;2022-09-14T03:37:11;7.32;;;5.38;;
47796;SDS011;33558;50.922;14.068;2022-09-14T03:39:40;8.05;;;5.60;;
47796;SDS011;33558;50.922;14.068;2022-09-14T03:42:07;7.63;;;5.60;;
47796;SDS011;33558;50.922;14.068;2022-09-14T03:44:33;8.07;;;5.47;;
47796;SDS011;33558;50.922;14.068;2022-09-14T03:47:00;6.70;;;5.50;;
47796;SDS011;33558;50.922;14.068;2022-09-14T03:49:26;8.00;;;5.35;;
47796;SDS011;33558;50.922;14.068;2022-09-14T03:51:53;6.00;;;5.28;;
47796;SDS011;33558;50.922;14.068;2022-09-14T03:54:19;8.48;;;5.45;;
47796;SDS011;33558;50.922;14.068;2022-09-14T03:56:47;9.07;;;5.47;;
47796;SDS011;33558;50.922;14.068;2022-09-14T03:59:16;8.60;;;5.57;;
47796;SDS011;33558;50.922;14.068;2022-09-14T04:01:43;7.63;;;5.50;;
47796;SDS011;33558;50.922;14.068;2022-09-14T04:04:10;5.82;;;4.97;;
47796;SDS011;33558;50.922;14.068;2022-09-14T04:06:36;7.38;;;6.00;;
47796;SDS011;33558;50.922;14.068;2022-09-14T04:09:03;7.13;;;5.13;;
47796;SDS011;33558;50.922;14.068;2022-09-14T04:11:30;8.82;;;5.72;;
47796;SDS011;33558;50.922;14.068;2022-09-14T04:14:00;6.10;;;5.30;;
47796;SDS011;33558;50.922;14.068;2022-09-14T04:16:28;11.85;;;5.85;;
47796;SDS011;33558;50.922;14.068;2022-09-14T04:18:55;7.70;;;4.93;;
47796;SDS011;33558;50.922;14.068;2022-09-14T04:21:22;7.07;;;5.47;;
47796;SDS011;33558;50.922;14.068;2022-09-14T04:23:50;8.48;;;5.63;;
47796;SDS011;33558;50.922;14.068;2022-09-14T04:26:18;7.60;;;5.10;;
47796;SDS011;33558;50.922;14.068;2022-09-14T04:28:46;8.52;;;6.72;;
47796;SDS011;33558;50.922;14.068;2022-09-14T04:31:14;7.15;;;6.25;;
47796;SDS011;33558;50.922;14.068;2022-09-14T04:33:41;7.78;;;6.03;;
47796;SDS011;33558;50.922;14.068;2022-09-14T04:36:09;7.10;;;5.72;;
47796;SDS011;33558;50.922;14.068;2022-09-14T04:38:37;10.60;;;5.93;;
47796;SDS011;33558;50.922;14.068;2022-09-14T04:41:05;7.68;;;5.32;;
47796;SDS011;33558;50.922;14.068;2022-09-14T04:43:32;8.10;;;5.50;;
47796;SDS011;33558;50.922;14.068;2022-09-14T04:46:00;7.53;;;5.97;;
47796;SDS011;33558;50.922;14.068;2022-09-14T04:48:28;10.70;;;5.68;;
47796;SDS011;33558;50.922;14.068;2022-09-14T04:50:59;6.20;;;5.30;;
47796;SDS011;33558;50.922;14.068;2022-09-14T04:53:26;7.20;;;5.60;;
47796;SDS011;33558;50.922;14.068;2022-09-14T04:55:52;8.18;;;5.40;;
47796;SDS011;33558;50.922;14.068;2022-09-14T04:58:24;9.55;;;6.55;;
47796;SDS011;33558;50.922;14.068;2022-09-14T05:00:52;7.18;;;5.70;;
47796;SDS011;33558;50.922;14.068;2022-09-14T05:03:19;7.93;;;5.53;;
47796;SDS011;33558;50.922;14.068;2022-09-14T05:05:47;8.20;;;5.40;;
47796;SDS011;33558;50.922;14.068;2022-09-14T05:08:14;9.27;;;6.53;;
47796;SDS011;33558;50.922;14.068;2022-09-14T05:10:40;8.43;;;5.47;;
47796;SDS011;33558;50.922;14.068;2022-09-14T05:13:07;8.25;;;5.85;;
47796;SDS011;33558;50.922;14.068;2022-09-14T05:15:34;9.18;;;6.22;;
47796;SDS011;33558;50.922;14.068;2022-09-14T05:18:00;11.05;;;6.72;;
47796;SDS011;33558;50.922;14.068;2022-09-14T05:20:27;7.20;;;6.50;;
47796;SDS011;33558;50.922;14.068;2022-09-14T05:22:55;11.65;;;6.40;;
47796;SDS011;33558;50.922;14.068;2022-09-14T05:25:21;7.85;;;6.20;;
47796;SDS011;33558;50.922;14.068;2022-09-14T05:27:49;7.90;;;6.80;;
47796;SDS011;33558;50.922;14.068;2022-09-14T05:30:15;8.38;;;6.10;;
47796;SDS011;33558;50.922;14.068;2022-09-14T05:32:42;6.75;;;6.00;;
47796;SDS011;33558;50.922;14.068;2022-09-14T05:35:08;7.18;;;6.43;;
47796;SDS011;33558;50.922;14.068;2022-09-14T05:37:35;7.72;;;6.20;;
47796;SDS011;33558;50.922;14.068;2022-09-14T05:40:03;7.32;;;6.38;;
47796;SDS011;33558;50.922;14.068;2022-09-14T05:42:31;10.27;;;6.40;;
47796;SDS011;33558;50.922;14.068;2022-09-14T05:44:58;8.52;;;6.63;;
47796;SDS011;33558;50.922;14.068;2022-09-14T05:47:25;8.13;;;7.07;;
47796;SDS011;33558;50.922;14.068;2022-09-14T05:49:54;8.10;;;6.60;;
47796;SDS011;33558;50.922;14.068;2022-09-14T05:52:21;9.35;;;7.03;;
47796;SDS011;33558;50.922;14.068;2022-09-14T05:54:47;8.75;;;6.85;;
47796;SDS011;33558;50.922;14.068;2022-09-14T05:57:15;8.15;;;7.10;;
47796;SDS011;33558;50.922;14.068;2022-09-14T05:59:42;7.85;;;7.13;;
47796;SDS011;33558;50.922;14.068;2022-09-14T06:02:08;12.88;;;7.05;;
47796;SDS011;33558;50.922;14.068;2022-09-14T06:04:35;9.45;;;6.88;;
47796;SDS011;33558;50.922;14.068;2022-09-14T06:07:02;11.07;;;6.78;;
47796;SDS011;33558;50.922;14.068;2022-09-14T06:09:29;9.10;;;6.80;;
47796;SDS011;33558;50.922;14.068;2022-09-14T06:11:55;9.00;;;6.93;;
47796;SDS011;33558;50.922;14.068;2022-09-14T06:14:23;8.05;;;7.25;;
47796;SDS011;33558;50.922;14.068;2022-09-14T06:16:50;9.68;;;6.65;;
47796;SDS011;33558;50.922;14.068;2022-09-14T06:19:16;7.82;;;7.00;;
47796;SDS011;33558;50.922;14.068;2022-09-14T06:21:43;8.43;;;7.10;;
47796;SDS011;33558;50.922;14.068;2022-09-14T06:24:10;9.43;;;6.10;;
47796;SDS011;33558;50.922;14.068;2022-09-14T06:26:37;7.68;;;6.95;;
47796;SDS011;33558;50.922;14.068;2022-09-14T06:29:04;7.30;;;6.30;;
47796;SDS011;33558;50.922;14.068;2022-09-14T06:31:32;10.35;;;7.07;;
47796;SDS011;33558;50.922;14.068;2022-09-14T06:33:58;8.48;;;6.18;;
47796;SDS011;33558;50.922;14.068;2022-09-14T06:36:26;8.30;;;6.40;;
47796;SDS011;33558;50.922;14.068;2022-09-14T06:38:53;9.88;;;6.80;;
47796;SDS011;33558;50.922;14.068;2022-09-14T06:41:20;11.23;;;6.55;;
47796;SDS011;33558;50.922;14.068;2022-09-14T06:43:50;7.80;;;6.07;;
47796;SDS011;33558;50.922;14.068;2022-09-14T06:46:20;8.02;;;5.97;;
47796;SDS011;33558;50.922;14.068;2022-09-14T06:48:50;10.45;;;6.85;;
47796;SDS011;33558;50.922;14.068;2022-09-14T06:51:20;7.75;;;6.95;;
47796;SDS011;33558;50.922;14.068;2022-09-14T06:53:48;8.48;;;7.07;;
47796;SDS011;33558;50.922;14.068;2022-09-14T06:56:15;8.00;;;6.28;;
47796;SDS011;33558;50.922;14.068;2022-09-14T06:58:42;8.48;;;7.32;;
47796;SDS011;33558;50.922;14.068;2022-09-14T07:01:10;10.50;;;6.53;;
47796;SDS011;33558;50.922;14.068;2022-09-14T07:03:38;10.65;;;6.68;;
47796;SDS011;33558;50.922;14.068;2022-09-14T07:06:07;8.05;;;6.85;;
47796;SDS011;33558;50.922;14.068;2022-09-14T07:08:35;7.63;;;6.72;;
47796;SDS011;33558;50.922;14.068;2022-09-14T07:11:03;7.20;;;6.05;;
47796;SDS011;33558;50.922;14.068;2022-09-14T07:13:30;9.90;;;6.43;;
47796;SDS011;33558;50.922;14.068;2022-09-14T07:15:57;8.68;;;6.95;;
47796;SDS011;33558;50.922;14.068;2022-09-14T07:18:24;8.10;;;6.45;;
47796;SDS011;33558;50.922;14.068;2022-09-14T07:20:53;8.38;;;6.38;;
47796;SDS011;33558;50.922;14.068;2022-09-14T07:23:21;9.00;;;6.90;;
47796;SDS011;33558;50.922;14.068;2022-09-14T07:25:57;8.88;;;6.55;;
47796;SDS011;33558;50.922;14.068;2022-09-14T07:28:24;7.97;;;6.40;;
47796;SDS011;33558;50.922;14.068;2022-09-14T07:30:51;9.60;;;6.65;;
47796;SDS011;33558;50.922;14.068;2022-09-14T07:33:18;10.05;;;6.45;;
47796;SDS011;33558;50.922;14.068;2022-09-14T07:35:45;10.98;;;6.25;;
47796;SDS011;33558;50.922;14.068;2022-09-14T07:38:12;7.43;;;6.45;;
47796;SDS011;33558;50.922;14.068;2022-09-14T07:40:40;7.00;;;5.80;;
47796;SDS011;33558;50.922;14.068;2022-09-14T07:43:06;8.27;;;6.78;;
47796;SDS011;33558;50.922;14.068;2022-09-14T07:45:33;10.05;;;6.38;;
47796;SDS011;33558;50.922;14.068;2022-09-14T07:48:00;7.35;;;6.65;;
47796;SDS011;33558;50.922;14.068;2022-09-14T07:50:27;7.47;;;6.72;;
47796;SDS011;33558;50.922;14.068;2022-09-14T07:52:53;7.65;;;6.65;;
47796;SDS011;33558;50.922;14.068;2022-09-14T07:55:20;8.18;;;7.25;;
47796;SDS011;33558;50.922;14.068;2022-09-14T07:57:48;8.57;;;6.53;;
47796;SDS011;33558;50.922;14.068;2022-09-14T08:00:14;10.25;;;7.63;;
47796;SDS011;33558;50.922;14.068;2022-09-14T08:02:41;10.02;;;7.03;;
47796;SDS011;33558;50.922;14.068;2022-09-14T08:05:08;8.00;;;6.80;;
47796;SDS011;33558;50.922;14.068;2022-09-14T08:07:35;8.80;;;6.70;;
47796;SDS011;33558;50.922;14.068;2022-09-14T08:10:01;9.55;;;6.90;;
47796;SDS011;33558;50.922;14.068;2022-09-14T08:12:28;7.20;;;6.28;;
47796;SDS011;33558;50.922;14.068;2022-09-14T08:14:56;9.50;;;6.82;;
47796;SDS011;33558;50.922;14.068;2022-09-14T08:17:23;7.57;;;6.78;;
47796;SDS011;33558;50.922;14.068;2022-09-14T08:19:49;9.65;;;6.63;;
47796;SDS011;33558;50.922;14.068;2022-09-14T08:22:16;9.23;;;6.72;;
47796;SDS011;33558;50.922;14.068;2022-09-14T08:24:43;8.02;;;6.50;;
47796;SDS011;33558;50.922;14.068;2022-09-14T08:27:09;7.53;;;6.10;;
47796;SDS011;33558;50.922;14.068;2022-09-14T08:29:36;7.72;;;6.80;;
47796;SDS011;33558;50.922;14.068;2022-09-14T08:32:05;9.98;;;6.97;;
47796;SDS011;33558;50.922;14.068;2022-09-14T08:34:32;9.60;;;6.57;;
47796;SDS011;33558;50.922;14.068;2022-09-14T08:36:58;6.93;;;6.22;;
47796;SDS011;33558;50.922;14.068;2022-09-14T08:39:25;8.55;;;7.18;;
47796;SDS011;33558;50.922;14.068;2022-09-14T08:41:52;8.25;;;7.22;;
47796;SDS011;33558;50.922;14.068;2022-09-14T08:44:22;9.25;;;7.70;;
47796;SDS011;33558;50.922;14.068;2022-09-14T08:46:50;10.35;;;7.53;;
47796;SDS011;33558;50.922;14.068;2022-09-14T08:49:26;7.82;;;6.65;;
47796;SDS011;33558;50.922;14.068;2022-09-14T08:52:00;10.13;;;6.50;;
47796;SDS011;33558;50.922;14.068;2022-09-14T08:54:27;9.02;;;7.22;;
47796;SDS011;33558;50.922;14.068;2022-09-14T08:56:55;8.73;;;7.20;;
47796;SDS011;33558;50.922;14.068;2022-09-14T08:59:31;8.65;;;7.75;;
47796;SDS011;33558;50.922;14.068;2022-09-14T09:02:13;8.73;;;7.78;;
47796;SDS011;33558;50.922;14.068;2022-09-14T09:04:50;10.18;;;8.05;;
47796;SDS011;33558;50.922;14.068;2022-09-14T09:07:18;11.35;;;8.45;;
47796;SDS011;33558;50.922;14.068;2022-09-14T09:09:49;9.57;;;8.23;;
47796;SDS011;33558;50.922;14.068;2022-09-14T09:12:17;8.85;;;7.95;;
47796;SDS011;33558;50.922;14.068;2022-09-14T09:14:47;9.30;;;7.70;;
47796;SDS011;33558;50.922;14.068;2022-09-14T09:17:17;11.30;;;8.93;;
47796;SDS011;33558;50.922;14.068;2022-09-14T09:19:53;9.88;;;8.65;;
47796;SDS011;33558;50.922;14.068;2022-09-14T09:24:51;9.43;;;8.43;;
47796;SDS011;33558;50.922;14.068;2022-09-14T09:27:19;9.23;;;7.97;;
47796;SDS011;33558;50.922;14.068;2022-09-14T09:29:46;11.27;;;8.23;;
47796;SDS011;33558;50.922;14.068;2022-09-14T09:32:13;12.02;;;9.30;;
47796;SDS011;33558;50.922;14.068;2022-09-14T09:34:45;9.10;;;7.60;;
47796;SDS011;33558;50.922;14.068;2022-09-14T09:37:25;11.00;;;8.57;;
47796;SDS011;33558;50.922;14.068;2022-09-14T09:39:51;8.75;;;7.85;;
47796;SDS011;33558;50.922;14.068;2022-09-14T09:42:19;13.52;;;7.45;;
47796;SDS011;33558;50.922;14.068;2022-09-14T09:44:55;9.15;;;7.72;;
47796;SDS011;33558;50.922;14.068;2022-09-14T09:47:29;9.67;;;7.10;;
47796;SDS011;33558;50.922;14.068;2022-09-14T09:49:58;8.00;;;7.20;;
47796;SDS011;33558;50.922;14.068;2022-09-14T09:52:27;8.15;;;7.00;;
47796;SDS011;33558;50.922;14.068;2022-09-14T09:54:54;8.18;;;7.20;;
47796;SDS011;33558;50.922;14.068;2022-09-14T09:57:23;8.02;;;7.03;;
47796;SDS011;33558;50.922;14.068;2022-09-14T10:00:07;8.82;;;6.72;;
47796;SDS011;33558;50.922;14.068;2022-09-14T10:02:37;8.48;;;6.85;;
47796;SDS011;33558;50.922;14.068;2022-09-14T10:05:05;11.07;;;7.90;;
47796;SDS011;33558;50.922;14.068;2022-09-14T10:07:49;8.52;;;6.88;;
47796;SDS011;33558;50.922;14.068;2022-09-14T10:10:19;8.70;;;7.33;;
47796;SDS011;33558;50.922;14.068;2022-09-14T10:12:47;10.18;;;7.07;;
47796;SDS011;33558;50.922;14.068;2022-09-14T10:15:15;7.95;;;6.72;;
47796;SDS011;33558;50.922;14.068;2022-09-14T10:17:53;7.82;;;6.55;;
47796;SDS011;33558;50.922;14.068;2022-09-14T10:20:32;9.65;;;7.18;;
47796;SDS011;33558;50.922;14.068;2022-09-14T10:23:13;8.20;;;7.05;;
47796;SDS011;33558;50.922;14.068;2022-09-14T10:28:17;7.47;;;6.78;;
47796;SDS011;33558;50.922;14.068;2022-09-14T10:30:48;8.65;;;7.85;;
47796;SDS011;33558;50.922;14.068;2022-09-14T10:33:17;8.27;;;6.97;;
47796;SDS011;33558;50.922;14.068;2022-09-14T10:35:45;7.20;;;6.53;;
47796;SDS011;33558;50.922;14.068;2022-09-14T10:38:21;8.00;;;7.20;;
47796;SDS011;33558;50.922;14.068;2022-09-14T10:40:56;9.13;;;7.47;;
47796;SDS011;33558;50.922;14.068;2022-09-14T10:43:35;12.80;;;8.50;;
47796;SDS011;33558;50.922;14.068;2022-09-14T10:46:09;8.23;;;7.28;;
47796;SDS011;33558;50.922;14.068;2022-09-14T10:48:54;10.27;;;7.63;;
47796;SDS011;33558;50.922;14.068;2022-09-14T10:51:49;8.35;;;7.43;;
47796;SDS011;33558;50.922;14.068;2022-09-14T10:54:37;8.05;;;7.20;;
47796;SDS011;33558;50.922;14.068;2022-09-14T10:57:22;9.18;;;7.65;;
47796;SDS011;33558;50.922;14.068;2022-09-14T10:59:55;7.85;;;6.78;;
47796;SDS011;33558;50.922;14.068;2022-09-14T11:05:12;9.05;;;7.88;;
47796;SDS011;33558;50.922;14.068;2022-09-14T11:07:46;7.68;;;6.88;;
47796;SDS011;33558;50.922;14.068;2022-09-14T11:10:22;9.15;;;7.50;;
47796;SDS011;33558;50.922;14.068;2022-09-14T11:13:06;9.10;;;8.20;;
47796;SDS011;33558;50.922;14.068;2022-09-14T11:15:44;7.90;;;7.10;;
47796;SDS011;33558;50.922;14.068;2022-09-14T11:18:15;8.15;;;7.30;;
47796;SDS011;33558;50.922;14.068;2022-09-14T11:20:49;11.43;;;7.47;;
47796;SDS011;33558;50.922;14.068;2022-09-14T11:23:29;9.85;;;8.07;;
47796;SDS011;33558;50.922;14.068;2022-09-14T11:26:06;9.23;;;8.23;;
47796;SDS011;33558;50.922;14.068;2022-09-14T11:28:37;9.05;;;8.15;;
47796;SDS011;33558;50.922;14.068;2022-09-14T11:31:06;8.88;;;7.97;;
47796;SDS011;33558;50.922;14.068;2022-09-14T11:33:37;9.65;;;8.75;;
47796;SDS011;33558;50.922;14.068;2022-09-14T11:36:07;12.05;;;10.30;;
47796;SDS011;33558;50.922;14.068;2022-09-14T11:38:40;12.93;;;10.27;;
47796;SDS011;33558;50.922;14.068;2022-09-14T11:41:13;11.68;;;10.38;;
47796;SDS011;33558;50.922;14.068;2022-09-14T11:43:45;11.27;;;10.10;;
47796;SDS011;33558;50.922;14.068;2022-09-14T11:46:14;12.20;;;10.50;;
47796;SDS011;33558;50.922;14.068;2022-09-14T11:48:46;11.80;;;10.60;;
47796;SDS011;33558;50.922;14.068;2022-09-14T11:51:17;11.85;;;10.30;;
47796;SDS011;33558;50.922;14.068;2022-09-14T11:53:46;12.52;;;11.25;;
47796;SDS011;33558;50.922;14.068;2022-09-14T11:56:21;12.30;;;11.00;;
47796;SDS011;33558;50.922;14.068;2022-09-14T11:58:51;13.07;;;10.55;;
47796;SDS011;33558;50.922;14.068;2022-09-14T12:01:30;10.55;;;9.48;;
47796;SDS011;33558;50.922;14.068;2022-09-14T12:04:03;12.70;;;10.98;;
47796;SDS011;33558;50.922;14.068;2022-09-14T12:09:37;12.73;;;10.15;;
47796;SDS011;33558;50.922;14.068;2022-09-14T12:12:22;14.05;;;11.60;;
47796;SDS011;33558;50.922;14.068;2022-09-14T12:15:20;10.55;;;9.45;;
47796;SDS011;33558;50.922;14.068;2022-09-14T12:20:58;11.73;;;9.60;;
47796;SDS011;33558;50.922;14.068;2022-09-14T12:23:28;13.90;;;11.63;;
47796;SDS011;33558;50.922;14.068;2022-09-14T12:26:00;11.88;;;10.63;;
47796;SDS011;33558;50.922;14.068;2022-09-14T12:28:44;12.90;;;10.48;;
47796;SDS011;33558;50.922;14.068;2022-09-14T12:31:30;11.23;;;10.02;;
47796;SDS011;33558;50.922;14.068;2022-09-14T12:34:11;13.60;;;10.60;;
47796;SDS011;33558;50.922;14.068;2022-09-14T12:37:00;11.85;;;10.60;;
47796;SDS011;33558;50.922;14.068;2022-09-14T12:39:30;10.90;;;9.85;;
47796;SDS011;33558;50.922;14.068;2022-09-14T12:42:01;11.35;;;10.15;;
47796;SDS011;33558;50.922;14.068;2022-09-14T12:44:32;12.70;;;11.45;;
47796;SDS011;33558;50.922;14.068;2022-09-14T12:50:18;11.82;;;10.68;;
47796;SDS011;33558;50.922;14.068;2022-09-14T12:52:52;13.48;;;12.10;;
47796;SDS011;33558;50.922;14.068;2022-09-14T13:01:12;13.80;;;12.40;;
47796;SDS011;33558;50.922;14.068;2022-09-14T13:03:47;13.95;;;12.38;;
47796;SDS011;33558;50.922;14.068;2022-09-14T13:06:15;12.90;;;11.23;;
47796;SDS011;33558;50.922;14.068;2022-09-14T13:08:44;12.35;;;10.57;;
47796;SDS011;33558;50.922;14.068;2022-09-14T13:11:22;14.80;;;12.02;;
47796;SDS011;33558;50.922;14.068;2022-09-14T13:13:51;11.85;;;10.63;;
47796;SDS011;33558;50.922;14.068;2022-09-14T13:16:22;12.98;;;11.65;;
47796;SDS011;33558;50.922;14.068;2022-09-14T13:18:58;12.18;;;10.98;;
47796;SDS011;33558;50.922;14.068;2022-09-14T13:21:25;11.77;;;10.50;;
47796;SDS011;33558;50.922;14.068;2022-09-14T13:23:52;11.90;;;10.70;;
47796;SDS011;33558;50.922;14.068;2022-09-14T13:26:19;11.18;;;9.98;;
47796;SDS011;33558;50.922;14.068;2022-09-14T13:28:49;11.35;;;10.25;;
47796;SDS011;33558;50.922;14.068;2022-09-14T13:31:17;11.80;;;10.60;;
47796;SDS011;33558;50.922;14.068;2022-09-14T13:33:49;12.93;;;11.20;;
47796;SDS011;33558;50.922;14.068;2022-09-14T13:36:17;11.07;;;9.32;;
47796;SDS011;33558;50.922;14.068;2022-09-14T13:38:46;10.02;;;9.05;;
47796;SDS011;33558;50.922;14.068;2022-09-14T13:41:14;10.63;;;9.43;;
47796;SDS011;33558;50.922;14.068;2022-09-14T13:43:42;12.40;;;11.10;;
47796;SDS011;33558;50.922;14.068;2022-09-14T13:46:11;12.15;;;10.88;;
47796;SDS011;33558;50.922;14.068;2022-09-14T13:48:38;14.93;;;12.05;;
47796;SDS011;33558;50.922;14.068;2022-09-14T13:51:07;12.52;;;10.85;;
47796;SDS011;33558;50.922;14.068;2022-09-14T13:53:35;12.45;;;11.25;;
47796;SDS011;33558;50.922;14.068;2022-09-14T13:56:20;11.57;;;10.15;;
47796;SDS011;33558;50.922;14.068;2022-09-14T14:01:41;12.65;;;11.35;;
47796;SDS011;33558;50.922;14.068;2022-09-14T14:04:19;12.60;;;11.30;;
47796;SDS011;33558;50.922;14.068;2022-09-14T14:06:58;14.40;;;12.52;;
47796;SDS011;33558;50.922;14.068;2022-09-14T14:09:39;14.10;;;12.70;;
47796;SDS011;33558;50.922;14.068;2022-09-14T14:12:08;11.70;;;10.48;;
47796;SDS011;33558;50.922;14.068;2022-09-14T14:14:36;12.13;;;10.80;;
47796;SDS011;33558;50.922;14.068;2022-09-14T14:17:09;13.35;;;10.73;;
47796;SDS011;33558;50.922;14.068;2022-09-14T14:19:45;11.45;;;10.25;;
47796;SDS011;33558;50.922;14.068;2022-09-14T14:22:18;11.38;;;9.43;;
47796;SDS011;33558;50.922;14.068;2022-09-14T14:24:45;10.82;;;9.82;;
47796;SDS011;33558;50.922;14.068;2022-09-14T14:27:25;13.32;;;12.02;;
47796;SDS011;33558;50.922;14.068;2022-09-14T14:29:54;12.48;;;10.45;;
47796;SDS011;33558;50.922;14.068;2022-09-14T14:32:21;13.70;;;11.50;;
47796;SDS011;33558;50.922;14.068;2022-09-14T14:34:47;12.38;;;10.70;;
47796;SDS011;33558;50.922;14.068;2022-09-14T14:37:18;12.82;;;10.73;;
47796;SDS011;33558;50.922;14.068;2022-09-14T14:39:45;11.35;;;10.25;;
47796;SDS011;33558;50.922;14.068;2022-09-14T14:42:12;12.10;;;10.70;;
47796;SDS011;33558;50.922;14.068;2022-09-14T14:44:39;12.00;;;10.73;;
47796;SDS011;33558;50.922;14.068;2022-09-14T14:47:06;12.75;;;11.15;;
47796;SDS011;33558;50.922;14.068;2022-09-14T14:49:32;13.15;;;11.38;;
47796;SDS011;33558;50.922;14.068;2022-09-14T14:52:00;11.38;;;9.48;;
47796;SDS011;33558;50.922;14.068;2022-09-14T14:54:28;11.25;;;10.20;;
47796;SDS011;33558;50.922;14.068;2022-09-14T14:56:54;12.52;;;11.02;;
47796;SDS011;33558;50.922;14.068;2022-09-14T14:59:25;13.88;;;9.48;;
47796;SDS011;33558;50.922;14.068;2022-09-14T15:01:54;13.98;;;10.88;;
47796;SDS011;33558;50.922;14.068;2022-09-14T15:04:21;11.50;;;10.40;;
47796;SDS011;33558;50.922;14.068;2022-09-14T15:06:48;12.63;;;10.88;;
47796;SDS011;33558;50.922;14.068;2022-09-14T15:09:16;13.88;;;11.95;;
47796;SDS011;33558;50.922;14.068;2022-09-14T15:11:45;12.00;;;10.80;;